sensor_id;sensor_type;location;lat;lon;timestamp;pressure;altitude;pressure_sealevel;temperature;humidity
71145;BME280;58812;47.698;17.726;2023-02-16T00:01:48;101582.41;;;-1.19;100.00
71145;BME280;58812;47.698;17.726;2023-02-16T00:04:21;101584.59;;;-1.37;100.00
71145;BME280;58812;47.698;17.726;2023-02-16T00:06:49;101574.88;;;-1.33;100.00
71145;BME280;58812;47.698;17.726;2023-02-16T00:09:15;101570.81;;;-1.45;100.00
71145;BME280;58812;47.698;17.726;2023-02-16T00:11:41;101581.31;;;-1.45;100.00
71145;BME280;58812;47.698;17.726;2023-02-16T00:14:26;101579.75;;;-1.18;100.00
71145;BME280;58812;47.698;17.726;2023-02-16T00:16:52;101582.66;;;-1.28;100.00
71145;BME280;58812;47.698;17.726;2023-02-16T00:21:44;101581.47;;;-1.17;100.00
71145;BME280;58812;47.698;17.726;2023-02-16T00:24:09;101577.56;;;-1.35;100.00
71145;BME280;58812;47.698;17.726;2023-02-16T00:26:35;101577.62;;;-0.71;100.00
71145;BME280;58812;47.698;17.726;2023-02-16T00:29:00;101576.50;;;-0.62;100.00
71145;BME280;58812;47.698;17.726;2023-02-16T00:31:27;101581.84;;;-0.98;100.00
71145;BME280;58812;47.698;17.726;2023-02-16T00:33:57;101566.25;;;-1.04;100.00
71145;BME280;58812;47.698;17.726;2023-02-16T00:36:22;101577.41;;;-1.28;100.00
71145;BME280;58812;47.698;17.726;2023-02-16T00:38:48;101579.00;;;-0.90;100.00
71145;BME280;58812;47.698;17.726;2023-02-16T00:41:19;101573.72;;;-1.21;100.00
71145;BME280;58812;47.698;17.726;2023-02-16T00:45:03;101575.50;;;-0.58;100.00
71145;BME280;58812;47.698;17.726;2023-02-16T00:49:43;101587.06;;;-1.29;100.00
71145;BME280;58812;47.698;17.726;2023-02-16T00:52:35;101582.19;;;-1.10;100.00
71145;BME280;58812;47.698;17.726;2023-02-16T00:55:09;101570.53;;;-1.34;100.00
71145;BME280;58812;47.698;17.726;2023-02-16T00:57:48;101571.16;;;-1.58;100.00
71145;BME280;58812;47.698;17.726;2023-02-16T01:00:20;101566.25;;;-1.38;100.00
71145;BME280;58812;47.698;17.726;2023-02-16T01:02:48;101564.34;;;-1.67;100.00
71145;BME280;58812;47.698;17.726;2023-02-16T01:05:14;101562.81;;;-1.76;100.00
71145;BME280;58812;47.698;17.726;2023-02-16T01:07:40;101556.50;;;-1.69;100.00
71145;BME280;58812;47.698;17.726;2023-02-16T01:10:25;101553.06;;;-1.37;100.00
71145;BME280;58812;47.698;17.726;2023-02-16T01:13:10;101558.78;;;-1.55;100.00
71145;BME280;58812;47.698;17.726;2023-02-16T01:15:37;101552.69;;;-1.55;100.00
71145;BME280;58812;47.698;17.726;2023-02-16T01:18:03;101546.72;;;-1.62;100.00
71145;BME280;58812;47.698;17.726;2023-02-16T01:20:29;101551.00;;;-1.58;100.00
71145;BME280;58812;47.698;17.726;2023-02-16T01:22:55;101542.34;;;-1.62;100.00
71145;BME280;58812;47.698;17.726;2023-02-16T01:25:20;101547.47;;;-1.57;100.00
71145;BME280;58812;47.698;17.726;2023-02-16T01:27:46;101542.44;;;-1.65;100.00
71145;BME280;58812;47.698;17.726;2023-02-16T01:30:15;101543.34;;;-1.67;100.00
71145;BME280;58812;47.698;17.726;2023-02-16T01:32:41;101538.19;;;-0.72;100.00
71145;BME280;58812;47.698;17.726;2023-02-16T01:35:08;101542.72;;;-1.43;100.00
71145;BME280;58812;47.698;17.726;2023-02-16T01:37:34;101535.97;;;-1.17;100.00
71145;BME280;58812;47.698;17.726;2023-02-16T01:39:59;101544.63;;;-1.48;100.00
71145;BME280;58812;47.698;17.726;2023-02-16T01:44:59;101529.59;;;-1.77;100.00
71145;BME280;58812;47.698;17.726;2023-02-16T01:47:50;101515.16;;;-1.59;100.00
71145;BME280;58812;47.698;17.726;2023-02-16T01:50:22;101520.03;;;-1.79;100.00
71145;BME280;58812;47.698;17.726;2023-02-16T01:53:01;101530.66;;;-1.50;100.00
71145;BME280;58812;47.698;17.726;2023-02-16T01:55:35;101526.34;;;-1.18;100.00
71145;BME280;58812;47.698;17.726;2023-02-16T01:58:19;101529.69;;;-1.13;100.00
71145;BME280;58812;47.698;17.726;2023-02-16T02:06:12;101526.78;;;-1.69;100.00
71145;BME280;58812;47.698;17.726;2023-02-16T02:09:09;101523.66;;;-1.83;100.00
71145;BME280;58812;47.698;17.726;2023-02-16T02:14:39;101509.47;;;-1.76;100.00
71145;BME280;58812;47.698;17.726;2023-02-16T02:17:08;101503.53;;;-1.84;100.00
71145;BME280;58812;47.698;17.726;2023-02-16T02:25:40;101497.44;;;-1.86;100.00
71145;BME280;58812;47.698;17.726;2023-02-16T02:36:41;101480.84;;;-1.87;100.00
71145;BME280;58812;47.698;17.726;2023-02-16T02:39:40;101476.97;;;-2.08;100.00
71145;BME280;58812;47.698;17.726;2023-02-16T02:42:17;101471.56;;;-2.02;100.00
71145;BME280;58812;47.698;17.726;2023-02-16T02:44:53;101475.69;;;-1.92;100.00
71145;BME280;58812;47.698;17.726;2023-02-16T02:47:20;101481.19;;;-1.67;100.00
71145;BME280;58812;47.698;17.726;2023-02-16T02:49:50;101478.81;;;-1.42;100.00
71145;BME280;58812;47.698;17.726;2023-02-16T02:52:17;101487.91;;;-1.89;100.00
71145;BME280;58812;47.698;17.726;2023-02-16T02:54:43;101483.25;;;-2.15;100.00
71145;BME280;58812;47.698;17.726;2023-02-16T02:57:44;101476.97;;;-2.08;100.00
71145;BME280;58812;47.698;17.726;2023-02-16T03:00:37;101478.81;;;-2.11;100.00
71145;BME280;58812;47.698;17.726;2023-02-16T03:03:25;101476.53;;;-2.27;100.00
71145;BME280;58812;47.698;17.726;2023-02-16T03:08:28;101481.88;;;-2.30;100.00
71145;BME280;58812;47.698;17.726;2023-02-16T03:11:00;101481.13;;;-2.35;100.00
71145;BME280;58812;47.698;17.726;2023-02-16T03:13:50;101489.91;;;-2.37;100.00
71145;BME280;58812;47.698;17.726;2023-02-16T03:16:28;101488.34;;;-2.46;100.00
71145;BME280;58812;47.698;17.726;2023-02-16T03:18:56;101494.53;;;-1.74;100.00
71145;BME280;58812;47.698;17.726;2023-02-16T03:21:41;101497.31;;;-1.80;100.00
71145;BME280;58812;47.698;17.726;2023-02-16T03:24:29;101493.75;;;-2.15;100.00
71145;BME280;58812;47.698;17.726;2023-02-16T03:27:26;101494.13;;;-2.30;100.00
71145;BME280;58812;47.698;17.726;2023-02-16T03:30:12;101489.59;;;-2.24;100.00
71145;BME280;58812;47.698;17.726;2023-02-16T03:32:39;101492.47;;;-2.34;100.00
71145;BME280;58812;47.698;17.726;2023-02-16T03:35:04;101494.31;;;-2.01;100.00
71145;BME280;58812;47.698;17.726;2023-02-16T03:37:31;101492.22;;;-2.24;100.00
71145;BME280;58812;47.698;17.726;2023-02-16T03:39:56;101481.03;;;-2.32;100.00
71145;BME280;58812;47.698;17.726;2023-02-16T03:42:50;101484.91;;;-2.48;100.00
71145;BME280;58812;47.698;17.726;2023-02-16T03:45:16;101485.53;;;-2.37;100.00
71145;BME280;58812;47.698;17.726;2023-02-16T03:47:42;101478.31;;;-2.27;100.00
71145;BME280;58812;47.698;17.726;2023-02-16T03:50:08;101481.72;;;-2.24;100.00
71145;BME280;58812;47.698;17.726;2023-02-16T03:52:33;101480.16;;;-2.32;100.00
71145;BME280;58812;47.698;17.726;2023-02-16T03:54:59;101484.63;;;-2.36;100.00
71145;BME280;58812;47.698;17.726;2023-02-16T03:57:24;101489.16;;;-2.43;100.00
71145;BME280;58812;47.698;17.726;2023-02-16T03:59:50;101475.44;;;-2.54;100.00
71145;BME280;58812;47.698;17.726;2023-02-16T04:02:17;101479.09;;;-2.61;100.00
71145;BME280;58812;47.698;17.726;2023-02-16T04:04:43;101479.78;;;-2.53;100.00
71145;BME280;58812;47.698;17.726;2023-02-16T04:07:08;101482.22;;;-2.45;100.00
71145;BME280;58812;47.698;17.726;2023-02-16T04:09:34;101470.75;;;-2.04;100.00
71145;BME280;58812;47.698;17.726;2023-02-16T04:11:59;101485.72;;;-2.07;100.00
71145;BME280;58812;47.698;17.726;2023-02-16T04:14:43;101486.50;;;-2.04;100.00
71145;BME280;58812;47.698;17.726;2023-02-16T04:17:08;101478.78;;;-2.10;100.00
71145;BME280;58812;47.698;17.726;2023-02-16T04:19:34;101477.66;;;-2.00;100.00
71145;BME280;58812;47.698;17.726;2023-02-16T04:21:59;101474.44;;;-2.11;100.00
71145;BME280;58812;47.698;17.726;2023-02-16T04:24:24;101476.16;;;-1.74;100.00
71145;BME280;58812;47.698;17.726;2023-02-16T04:26:50;101488.78;;;-1.90;100.00
71145;BME280;58812;47.698;17.726;2023-02-16T04:29:15;101491.84;;;-2.08;100.00
71145;BME280;58812;47.698;17.726;2023-02-16T04:31:41;101490.03;;;-2.05;100.00
71145;BME280;58812;47.698;17.726;2023-02-16T04:34:06;101483.56;;;-2.27;100.00
71145;BME280;58812;47.698;17.726;2023-02-16T04:36:31;101498.09;;;-2.12;100.00
71145;BME280;58812;47.698;17.726;2023-02-16T04:38:58;101489.19;;;-2.44;100.00
71145;BME280;58812;47.698;17.726;2023-02-16T04:41:24;101484.09;;;-2.52;100.00
71145;BME280;58812;47.698;17.726;2023-02-16T04:43:50;101487.69;;;-2.17;100.00
71145;BME280;58812;47.698;17.726;2023-02-16T04:46:16;101481.88;;;-2.31;100.00
71145;BME280;58812;47.698;17.726;2023-02-16T04:48:43;101487.41;;;-2.05;100.00
71145;BME280;58812;47.698;17.726;2023-02-16T04:51:09;101477.91;;;-2.49;100.00
71145;BME280;58812;47.698;17.726;2023-02-16T04:53:34;101475.56;;;-2.60;100.00
71145;BME280;58812;47.698;17.726;2023-02-16T04:55:59;101472.44;;;-2.38;100.00
71145;BME280;58812;47.698;17.726;2023-02-16T04:58:25;101479.31;;;-2.73;100.00
71145;BME280;58812;47.698;17.726;2023-02-16T05:00:50;101473.00;;;-3.05;100.00
71145;BME280;58812;47.698;17.726;2023-02-16T05:03:16;101468.75;;;-3.10;100.00
71145;BME280;58812;47.698;17.726;2023-02-16T05:05:41;101468.19;;;-3.26;100.00
71145;BME280;58812;47.698;17.726;2023-02-16T05:08:06;101466.41;;;-3.24;100.00
71145;BME280;58812;47.698;17.726;2023-02-16T05:10:32;101466.75;;;-3.42;100.00
71145;BME280;58812;47.698;17.726;2023-02-16T05:12:57;101463.94;;;-3.33;100.00
71145;BME280;58812;47.698;17.726;2023-02-16T05:15:41;101459.69;;;-3.39;100.00
71145;BME280;58812;47.698;17.726;2023-02-16T05:18:07;101454.03;;;-3.17;100.00
71145;BME280;58812;47.698;17.726;2023-02-16T05:20:32;101454.56;;;-3.43;100.00
71145;BME280;58812;47.698;17.726;2023-02-16T05:23:16;101454.56;;;-3.45;100.00
71145;BME280;58812;47.698;17.726;2023-02-16T05:25:41;101456.22;;;-3.39;100.00
71145;BME280;58812;47.698;17.726;2023-02-16T05:28:07;101445.94;;;-3.48;100.00
71145;BME280;58812;47.698;17.726;2023-02-16T05:30:32;101448.59;;;-3.52;100.00
71145;BME280;58812;47.698;17.726;2023-02-16T05:32:58;101453.78;;;-3.48;100.00
71145;BME280;58812;47.698;17.726;2023-02-16T05:35:23;101457.88;;;-3.35;100.00
71145;BME280;58812;47.698;17.726;2023-02-16T05:37:49;101454.59;;;-3.46;100.00
71145;BME280;58812;47.698;17.726;2023-02-16T05:40:14;101451.09;;;-3.45;100.00
71145;BME280;58812;47.698;17.726;2023-02-16T05:42:40;101453.56;;;-3.36;100.00
71145;BME280;58812;47.698;17.726;2023-02-16T05:45:06;101459.91;;;-3.50;100.00
71145;BME280;58812;47.698;17.726;2023-02-16T05:47:31;101456.56;;;-3.58;100.00
71145;BME280;58812;47.698;17.726;2023-02-16T05:49:57;101461.31;;;-3.32;100.00
71145;BME280;58812;47.698;17.726;2023-02-16T05:52:22;101456.66;;;-3.64;100.00
71145;BME280;58812;47.698;17.726;2023-02-16T05:54:48;101467.97;;;-3.60;100.00
71145;BME280;58812;47.698;17.726;2023-02-16T05:57:13;101461.84;;;-3.61;100.00
71145;BME280;58812;47.698;17.726;2023-02-16T05:59:38;101468.50;;;-3.44;100.00
71145;BME280;58812;47.698;17.726;2023-02-16T06:02:04;101462.53;;;-3.50;100.00
71145;BME280;58812;47.698;17.726;2023-02-16T06:04:29;101473.75;;;-3.44;100.00
71145;BME280;58812;47.698;17.726;2023-02-16T06:06:57;101476.59;;;-3.55;100.00
71145;BME280;58812;47.698;17.726;2023-02-16T06:09:22;101473.59;;;-2.92;100.00
71145;BME280;58812;47.698;17.726;2023-02-16T06:11:47;101477.66;;;-3.20;100.00
71145;BME280;58812;47.698;17.726;2023-02-16T06:14:16;101489.19;;;-3.29;100.00
71145;BME280;58812;47.698;17.726;2023-02-16T06:16:45;101480.66;;;-2.54;100.00
71145;BME280;58812;47.698;17.726;2023-02-16T06:19:12;101490.31;;;-2.96;100.00
71145;BME280;58812;47.698;17.726;2023-02-16T06:21:38;101488.16;;;-2.77;100.00
71145;BME280;58812;47.698;17.726;2023-02-16T06:24:05;101482.72;;;-2.68;100.00
71145;BME280;58812;47.698;17.726;2023-02-16T06:26:32;101489.62;;;-2.64;100.00
71145;BME280;58812;47.698;17.726;2023-02-16T06:28:58;101480.44;;;-2.85;100.00
71145;BME280;58812;47.698;17.726;2023-02-16T06:31:23;101489.31;;;-2.92;100.00
71145;BME280;58812;47.698;17.726;2023-02-16T06:33:49;101489.50;;;-3.00;100.00
71145;BME280;58812;47.698;17.726;2023-02-16T06:36:15;101487.03;;;-3.09;100.00
71145;BME280;58812;47.698;17.726;2023-02-16T06:38:42;101486.56;;;-2.86;100.00
71145;BME280;58812;47.698;17.726;2023-02-16T06:41:08;101485.66;;;-2.83;100.00
71145;BME280;58812;47.698;17.726;2023-02-16T06:43:33;101480.31;;;-2.77;100.00
71145;BME280;58812;47.698;17.726;2023-02-16T06:45:59;101483.06;;;-2.83;100.00
71145;BME280;58812;47.698;17.726;2023-02-16T06:48:24;101486.31;;;-2.72;100.00
71145;BME280;58812;47.698;17.726;2023-02-16T06:50:50;101489.62;;;-2.64;100.00
71145;BME280;58812;47.698;17.726;2023-02-16T06:53:15;101486.09;;;-2.63;100.00
71145;BME280;58812;47.698;17.726;2023-02-16T06:55:41;101485.69;;;-2.45;100.00
71145;BME280;58812;47.698;17.726;2023-02-16T06:58:07;101482.13;;;-2.40;100.00
71145;BME280;58812;47.698;17.726;2023-02-16T07:00:33;101483.97;;;-2.46;100.00
71145;BME280;58812;47.698;17.726;2023-02-16T07:02:59;101483.78;;;-2.36;100.00
71145;BME280;58812;47.698;17.726;2023-02-16T07:05:24;101486.66;;;-2.10;100.00
71145;BME280;58812;47.698;17.726;2023-02-16T07:07:50;101487.59;;;-2.14;100.00
71145;BME280;58812;47.698;17.726;2023-02-16T07:10:16;101495.50;;;-1.78;100.00
71145;BME280;58812;47.698;17.726;2023-02-16T07:12:41;101488.81;;;-1.56;100.00
71145;BME280;58812;47.698;17.726;2023-02-16T07:15:08;101497.91;;;-1.69;100.00
71145;BME280;58812;47.698;17.726;2023-02-16T07:17:33;101487.94;;;-1.56;100.00
71145;BME280;58812;47.698;17.726;2023-02-16T07:19:59;101494.09;;;-1.57;100.00
71145;BME280;58812;47.698;17.726;2023-02-16T07:22:24;101486.34;;;-1.62;100.00
71145;BME280;58812;47.698;17.726;2023-02-16T07:24:50;101489.72;;;-1.93;100.00
71145;BME280;58812;47.698;17.726;2023-02-16T07:27:15;101490.28;;;-1.80;100.00
71145;BME280;58812;47.698;17.726;2023-02-16T07:29:40;101494.72;;;-1.82;100.00
71145;BME280;58812;47.698;17.726;2023-02-16T07:32:06;101487.97;;;-1.92;100.00
71145;BME280;58812;47.698;17.726;2023-02-16T07:34:32;101487.41;;;-1.69;100.00
71145;BME280;58812;47.698;17.726;2023-02-16T07:36:57;101495.47;;;-1.77;100.00
71145;BME280;58812;47.698;17.726;2023-02-16T07:39:23;101493.12;;;-1.87;100.00
71145;BME280;58812;47.698;17.726;2023-02-16T07:41:48;101501.66;;;-1.79;100.00
71145;BME280;58812;47.698;17.726;2023-02-16T07:44:14;101490.34;;;-1.81;100.00
71145;BME280;58812;47.698;17.726;2023-02-16T07:46:39;101489.38;;;-1.77;100.00
71145;BME280;58812;47.698;17.726;2023-02-16T07:49:05;101489.34;;;-1.43;100.00
71145;BME280;58812;47.698;17.726;2023-02-16T07:51:31;101481.44;;;-1.42;100.00
71145;BME280;58812;47.698;17.726;2023-02-16T07:53:58;101492.25;;;-1.21;100.00
71145;BME280;58812;47.698;17.726;2023-02-16T07:56:29;101486.03;;;-1.17;100.00
71145;BME280;58812;47.698;17.726;2023-02-16T07:58:57;101491.00;;;-1.08;100.00
71145;BME280;58812;47.698;17.726;2023-02-16T08:01:23;101496.66;;;-0.91;100.00
71145;BME280;58812;47.698;17.726;2023-02-16T08:03:49;101498.72;;;-1.02;100.00
71145;BME280;58812;47.698;17.726;2023-02-16T08:06:15;101497.56;;;-0.92;100.00
71145;BME280;58812;47.698;17.726;2023-02-16T08:08:42;101491.00;;;-1.08;100.00
71145;BME280;58812;47.698;17.726;2023-02-16T08:11:12;101494.03;;;-0.91;100.00
71145;BME280;58812;47.698;17.726;2023-02-16T08:13:38;101471.47;;;-0.98;100.00
71145;BME280;58812;47.698;17.726;2023-02-16T08:16:16;101489.22;;;-0.75;100.00
71145;BME280;58812;47.698;17.726;2023-02-16T08:18:42;101496.50;;;-0.55;100.00
71145;BME280;58812;47.698;17.726;2023-02-16T08:21:14;101497.84;;;-0.71;100.00
71145;BME280;58812;47.698;17.726;2023-02-16T08:23:45;101493.75;;;-0.50;100.00
71145;BME280;58812;47.698;17.726;2023-02-16T08:26:13;101487.31;;;-0.42;100.00
71145;BME280;58812;47.698;17.726;2023-02-16T08:28:39;101494.22;;;-0.38;100.00
71145;BME280;58812;47.698;17.726;2023-02-16T08:31:11;101486.69;;;-0.20;100.00
71145;BME280;58812;47.698;17.726;2023-02-16T08:33:37;101492.78;;;0.08;100.00
71145;BME280;58812;47.698;17.726;2023-02-16T08:36:03;101497.78;;;0.16;100.00
71145;BME280;58812;47.698;17.726;2023-02-16T08:38:34;101502.16;;;0.17;100.00
71145;BME280;58812;47.698;17.726;2023-02-16T08:40:59;101507.22;;;0.23;100.00
71145;BME280;58812;47.698;17.726;2023-02-16T08:43:25;101514.25;;;0.22;100.00
71145;BME280;58812;47.698;17.726;2023-02-16T08:45:51;101518.50;;;0.26;100.00
71145;BME280;58812;47.698;17.726;2023-02-16T08:48:17;101522.06;;;0.25;100.00
71145;BME280;58812;47.698;17.726;2023-02-16T08:50:47;101524.81;;;0.49;100.00
71145;BME280;58812;47.698;17.726;2023-02-16T08:53:18;101525.69;;;0.21;100.00
71145;BME280;58812;47.698;17.726;2023-02-16T08:55:55;101533.06;;;-0.18;100.00
71145;BME280;58812;47.698;17.726;2023-02-16T08:58:21;101537.72;;;-0.56;100.00
71145;BME280;58812;47.698;17.726;2023-02-16T09:00:47;101539.53;;;-0.58;100.00
71145;BME280;58812;47.698;17.726;2023-02-16T09:03:14;101541.41;;;-0.32;100.00
71145;BME280;58812;47.698;17.726;2023-02-16T09:05:40;101533.88;;;-0.44;100.00
71145;BME280;58812;47.698;17.726;2023-02-16T09:08:06;101534.97;;;-0.51;100.00
71145;BME280;58812;47.698;17.726;2023-02-16T09:10:31;101544.84;;;-0.59;100.00
71145;BME280;58812;47.698;17.726;2023-02-16T09:12:57;101546.53;;;-0.88;100.00
71145;BME280;58812;47.698;17.726;2023-02-16T09:15:22;101549.50;;;-0.69;100.00
71145;BME280;58812;47.698;17.726;2023-02-16T09:17:48;101545.84;;;-0.94;100.00
71145;BME280;58812;47.698;17.726;2023-02-16T09:20:13;101549.41;;;-0.97;100.00
71145;BME280;58812;47.698;17.726;2023-02-16T09:22:42;101546.25;;;-0.78;100.00
71145;BME280;58812;47.698;17.726;2023-02-16T09:25:08;101553.19;;;-0.74;100.00
71145;BME280;58812;47.698;17.726;2023-02-16T09:27:35;101543.41;;;-0.40;100.00
71145;BME280;58812;47.698;17.726;2023-02-16T09:30:01;101544.47;;;-0.76;100.00
71145;BME280;58812;47.698;17.726;2023-02-16T09:32:30;101542.34;;;-0.64;100.00
71145;BME280;58812;47.698;17.726;2023-02-16T09:34:56;101538.41;;;-1.11;100.00
71145;BME280;58812;47.698;17.726;2023-02-16T09:37:22;101544.31;;;-1.03;100.00
71145;BME280;58812;47.698;17.726;2023-02-16T09:39:47;101542.50;;;-1.01;100.00
71145;BME280;58812;47.698;17.726;2023-02-16T09:45:18;101536.69;;;-0.50;100.00
71145;BME280;58812;47.698;17.726;2023-02-16T09:47:47;101542.97;;;-0.56;100.00
71145;BME280;58812;47.698;17.726;2023-02-16T09:53:06;101538.59;;;-0.55;100.00
71145;BME280;58812;47.698;17.726;2023-02-16T09:58:16;101538.72;;;-0.02;100.00
71145;BME280;58812;47.698;17.726;2023-02-16T10:00:48;101539.63;;;-0.61;100.00
71145;BME280;58812;47.698;17.726;2023-02-16T10:06:20;101548.66;;;0.44;100.00
71145;BME280;58812;47.698;17.726;2023-02-16T10:08:52;101533.38;;;0.01;100.00
71145;BME280;58812;47.698;17.726;2023-02-16T10:11:26;101540.03;;;0.13;100.00
71145;BME280;58812;47.698;17.726;2023-02-16T10:14:13;101542.56;;;0.94;100.00
71145;BME280;58812;47.698;17.726;2023-02-16T10:16:45;101542.22;;;1.28;100.00
71145;BME280;58812;47.698;17.726;2023-02-16T10:19:20;101543.03;;;1.53;100.00
71145;BME280;58812;47.698;17.726;2023-02-16T10:21:51;101553.41;;;1.81;99.91
71145;BME280;58812;47.698;17.726;2023-02-16T10:24:18;101546.81;;;2.15;100.00
71145;BME280;58812;47.698;17.726;2023-02-16T10:26:56;101552.31;;;1.87;98.29
71145;BME280;58812;47.698;17.726;2023-02-16T10:29:24;101546.03;;;1.68;99.30
71145;BME280;58812;47.698;17.726;2023-02-16T10:34:48;101537.53;;;1.59;100.00
71145;BME280;58812;47.698;17.726;2023-02-16T10:40:13;101530.47;;;1.60;100.00
71145;BME280;58812;47.698;17.726;2023-02-16T10:45:48;101531.97;;;1.44;100.00
71145;BME280;58812;47.698;17.726;2023-02-16T10:48:14;101521.75;;;1.34;100.00
71145;BME280;58812;47.698;17.726;2023-02-16T10:50:54;101530.94;;;1.48;100.00
71145;BME280;58812;47.698;17.726;2023-02-16T10:59:30;101519.41;;;1.96;100.00
71145;BME280;58812;47.698;17.726;2023-02-16T11:01:58;101513.22;;;1.51;100.00
71145;BME280;58812;47.698;17.726;2023-02-16T11:07:09;101513.28;;;1.50;100.00
71145;BME280;58812;47.698;17.726;2023-02-16T11:09:36;101509.31;;;2.05;100.00
71145;BME280;58812;47.698;17.726;2023-02-16T11:12:25;101506.50;;;1.88;99.80
71145;BME280;58812;47.698;17.726;2023-02-16T11:17:22;101494.44;;;1.36;100.00
71145;BME280;58812;47.698;17.726;2023-02-16T11:19:59;101491.75;;;1.82;100.00
71145;BME280;58812;47.698;17.726;2023-02-16T11:22:35;101500.34;;;1.87;100.00
71145;BME280;58812;47.698;17.726;2023-02-16T11:25:23;101492.47;;;1.64;100.00
71145;BME280;58812;47.698;17.726;2023-02-16T11:27:58;101489.66;;;2.12;99.08
71145;BME280;58812;47.698;17.726;2023-02-16T11:30:35;101479.97;;;1.69;100.00
71145;BME280;58812;47.698;17.726;2023-02-16T11:33:03;101479.81;;;1.03;100.00
71145;BME280;58812;47.698;17.726;2023-02-16T11:35:31;101472.97;;;1.68;100.00
71145;BME280;58812;47.698;17.726;2023-02-16T11:38:05;101474.69;;;1.69;100.00
71145;BME280;58812;47.698;17.726;2023-02-16T11:40:32;101468.81;;;1.84;100.00
71145;BME280;58812;47.698;17.726;2023-02-16T11:42:59;101466.53;;;2.39;100.00
71145;BME280;58812;47.698;17.726;2023-02-16T11:45:32;101461.84;;;2.26;97.57
71145;BME280;58812;47.698;17.726;2023-02-16T11:48:03;101458.59;;;1.97;97.98
71145;BME280;58812;47.698;17.726;2023-02-16T11:50:36;101459.19;;;2.46;96.95
71145;BME280;58812;47.698;17.726;2023-02-16T11:55:35;101469.38;;;2.13;96.75
71145;BME280;58812;47.698;17.726;2023-02-16T11:58:20;101462.34;;;1.92;97.93
71145;BME280;58812;47.698;17.726;2023-02-16T12:17:34;101440.63;;;2.68;96.36
71145;BME280;58812;47.698;17.726;2023-02-16T12:20:35;101433.87;;;2.40;95.34
71145;BME280;58812;47.698;17.726;2023-02-16T12:28:35;101432.03;;;2.22;97.07
71145;BME280;58812;47.698;17.726;2023-02-16T12:33:39;101416.75;;;3.83;94.01
71145;BME280;58812;47.698;17.726;2023-02-16T12:36:37;101414.94;;;3.47;91.51
71145;BME280;58812;47.698;17.726;2023-02-16T12:41:46;101406.06;;;3.48;91.19
71145;BME280;58812;47.698;17.726;2023-02-16T12:44:17;101398.44;;;3.04;93.23
71145;BME280;58812;47.698;17.726;2023-02-16T12:46:58;101394.19;;;3.38;92.65
71145;BME280;58812;47.698;17.726;2023-02-16T12:50:05;101387.31;;;3.53;91.22
71145;BME280;58812;47.698;17.726;2023-02-16T13:11:22;101363.91;;;2.88;93.09
71145;BME280;58812;47.698;17.726;2023-02-16T13:13:51;101365.31;;;3.33;93.24
71145;BME280;58812;47.698;17.726;2023-02-16T13:16:30;101363.69;;;3.12;92.81
71145;BME280;58812;47.698;17.726;2023-02-16T13:19:00;101362.56;;;2.99;94.01
71145;BME280;58812;47.698;17.726;2023-02-16T13:41:02;101341.87;;;2.69;95.41
71145;BME280;58812;47.698;17.726;2023-02-16T13:46:09;101336.28;;;3.68;90.94
71145;BME280;58812;47.698;17.726;2023-02-16T13:48:47;101332.16;;;2.88;93.49
71145;BME280;58812;47.698;17.726;2023-02-16T13:51:20;101339.06;;;3.29;93.96
71145;BME280;58812;47.698;17.726;2023-02-16T13:53:55;101339.88;;;2.74;95.52
71145;BME280;58812;47.698;17.726;2023-02-16T13:56:35;101335.44;;;2.35;96.86
71145;BME280;58812;47.698;17.726;2023-02-16T14:01:58;101334.87;;;2.68;98.71
71145;BME280;58812;47.698;17.726;2023-02-16T14:22:48;101336.13;;;2.40;99.18
71145;BME280;58812;47.698;17.726;2023-02-16T14:27:47;101331.31;;;2.69;97.50
71145;BME280;58812;47.698;17.726;2023-02-16T14:36:06;101329.13;;;2.19;98.90
71145;BME280;58812;47.698;17.726;2023-02-16T14:38:42;101328.69;;;2.09;100.00
71145;BME280;58812;47.698;17.726;2023-02-16T14:41:30;101313.91;;;2.45;100.00
71145;BME280;58812;47.698;17.726;2023-02-16T15:03:15;101317.09;;;1.71;100.00
71145;BME280;58812;47.698;17.726;2023-02-16T15:05:41;101307.53;;;1.48;100.00
71145;BME280;58812;47.698;17.726;2023-02-16T15:08:18;101315.63;;;1.64;100.00
71145;BME280;58812;47.698;17.726;2023-02-16T15:10:48;101304.31;;;1.40;100.00
71145;BME280;58812;47.698;17.726;2023-02-16T15:13:25;101311.03;;;1.69;100.00
71145;BME280;58812;47.698;17.726;2023-02-16T15:15:54;101306.78;;;1.45;100.00
71145;BME280;58812;47.698;17.726;2023-02-16T15:18:23;101300.91;;;1.38;100.00
71145;BME280;58812;47.698;17.726;2023-02-16T15:20:51;101310.06;;;1.06;100.00
71145;BME280;58812;47.698;17.726;2023-02-16T15:23:24;101301.19;;;0.87;100.00
71145;BME280;58812;47.698;17.726;2023-02-16T15:26:20;101300.38;;;0.85;100.00
71145;BME280;58812;47.698;17.726;2023-02-16T15:28:52;101298.31;;;0.93;100.00
71145;BME280;58812;47.698;17.726;2023-02-16T15:31:19;101301.31;;;0.84;100.00
71145;BME280;58812;47.698;17.726;2023-02-16T15:33:56;101302.44;;;0.76;100.00
71145;BME280;58812;47.698;17.726;2023-02-16T15:36:26;101299.16;;;0.71;100.00
71145;BME280;58812;47.698;17.726;2023-02-16T15:39:03;101303.81;;;0.87;100.00
71145;BME280;58812;47.698;17.726;2023-02-16T15:41:34;101304.00;;;0.82;100.00
71145;BME280;58812;47.698;17.726;2023-02-16T15:44:02;101295.47;;;0.75;100.00
71145;BME280;58812;47.698;17.726;2023-02-16T15:46:37;101296.00;;;0.62;100.00
71145;BME280;58812;47.698;17.726;2023-02-16T15:49:33;101297.50;;;0.91;100.00
71145;BME280;58812;47.698;17.726;2023-02-16T15:51:59;101300.94;;;0.93;100.00
71145;BME280;58812;47.698;17.726;2023-02-16T15:54:27;101299.22;;;1.36;100.00